TAF for South England South Wales and Channel Islands - 23 Oct 2017 - 0947 UTC - RocketRoute WX - rrwx.com
EGJA 230802Z 2309/2318 24018KT 3000 RADZ BKN003 PROB40 TEMPO 2309/2314 8000 -DZ BKN010 TEMPO 2314/2318 1500 BR BKN001 PROB30 TEMPO 2316/2318 0600 FG BKN000 EGUB AMD 230754Z 2307/2315 19008KT 9999 BKN008 TEMPO 2308/2313 6000 -RADZ SCT006 PROB30 TEMPO 2310/2313 3000 RADZ SCT004 BECMG 2313/2315 FEW022 EGKB 230806Z 2309/2318 20012KT 9999 SCT006 BKN015 BECMG 2309/2310 7000 -DZ BKN006 TEMPO 2309/2318 3000 RADZ BKN003 PROB30 TEMPO 2310/2315 0300 FG BKN001 BECMG 2314/2317 26010KT TEMPO 1718 SCT008 EGDM 230725Z 2309/2318 22007KT 9999 BKN006 TEMPO 2309/2312 2000 -RADZ BKN003 PROB30 TEMPO 2309/2310 1000 DZ BKN001 BECMG 2312/2314 FEW020 PROB40 TEMPO 2314/2316 SCT015 EGHH 230801Z 2309/2318 21008KT 5000 -RA BR BKN005 TEMPO 2309/2312 3000 RADZ BKN004 BECMG 2312/2315 27010KT 9999 NSW SCT020 EGGD AMD 230935Z 2309/2406 21012KT 9999 BKN012 TEMPO 2309/2313 3000 RADZ BKN003 PROB30 2309/2312 0300 FG OVC000 BECMG 2312/2315 27010KT SCT030 BECMG 2315/2318 21005KT BECMG 2321/2324 7000 -RA BKN008 TEMPO 2322/2406 3000 RADZ BKN003 PROB30 TEMPO 2323/2406 0300 FG BKN001 EGVN 230734Z 2309/2409 24008KT 9999 BKN010 TEMPO 2309/2314 6000 -RADZ SCT005 PROB30 TEMPO 2309/2314 3000 RADZ SCT003 BECMG 2313/2315 FEW015 PROB30 TEMPO 2315/2317 SCT010 BECMG 2321/2324 BKN012 PROB40 TEMPO 2400/2408 3000 -RADZ BKN004 EGFF AMD 230738Z 2307/2406 20008KT 9999 OVC016 TEMPO 2307/2311 6000 RA BR BKN008 PROB40 TEMPO 2307/2310 1200 BR BKN002 BECMG 2311/2313 28012KT BECMG 2313/2317 20005KT TEMPO 2316/2406 8000 -RA BKN010 PROB30 TEMPO 2317/2320 3000 RADZ BR BKN002 PROB30 TEMPO 2320/2402 0600 DZ FG BKN001 BECMG 2403/2406 24015KT EGTC 230806Z 2309/2318 20010KT 9999 SCT008 BKN025 BECMG 2309/2311 BKN008 TEMPO 2309/2315 7000 -RADZ PROB40 TEMPO 2309/2314 3500 RADZ BKN004 BECMG 2313/2316 26012KT SCT018 EGDR 230815Z 2309/2318 23015G25KT 0500 FG DZ BKN000 OVC002 TEMPO 2309/2318 1500 BR -DZ FEW000 OVC002 BECMG 2309/2311 23012KT EGTE 230801Z 2309/2318 21009KT 9999 FEW005 SCT025 TEMPO 2309/2312 8000 -RA BKN010 PROB30 TEMPO 2309/2311 4000 RADZ BKN005 BECMG 2317/2318 BKN012 EGLF 230806Z 2309/2318 20008KT 9999 SCT008 BKN020 BECMG 2309/2310 BKN008 TEMPO 2309/2314 4000 RADZ BKN003 BECMG 2314/2317 26010KT SCT015 EGTG   EGBJ 230801Z 2309/2318 21008KT 9999 SCT011 TEMPO 2309/2314 8000 -RA BKN014 PROB40 TEMPO 2309/2314 4000 RA BR BKN004 BECMG 2312/2314 27012KT EGJB 230802Z 2309/2318 24018KT 3000 RADZ BKN003 PROB40 TEMPO 2309/2313 8000 -DZ BKN010 TEMPO 2313/2318 1500 BR BKN001 PROB30 TEMPO 2315/2318 0600 FG BKN000 EGJJ 230802Z 2309/2318 24017KT 3000 RADZ BKN003 PROB40 TEMPO 2309/2314 8000 -DZ BKN010 TEMPO 2314/2318 1500 BR BKN001 PROB30 TEMPO 2316/2318 0600 FG BKN000 EGGW 230457Z 2306/2406 23008KT 9999 SCT011 BKN033 BECMG 2306/2309 BKN006 TEMPO 2308/2314 5000 RADZ BKN003 PROB30 TEMPO 2309/2313 1400 BR BKN001 BECMG 2313/2315 FEW040 PROB30 2318/2322 2000 BR BECMG 2322/2324 2000 BR BKN004 PROB30 TEMPO 2400/2405 0300 FG OVC000 BECMG 2404/2406 7000 NSW FEW025 EGLC 230806Z 2309/2318 23008KT 9999 BKN020 BECMG 2309/2311 BKN012 TEMPO 2310/2317 7000 -RADZ PROB30 TEMPO 2310/2316 4000 RADZ BKN006 TEMPO 1718 SCT012 EGKK 230504Z 2306/2412 23007KT 9999 SCT040 BECMG 2306/2309 BKN008 TEMPO 2306/2315 6000 -RA PROB40 TEMPO 2309/2315 3000 RADZ BKN003 BECMG 2315/2318 SCT020 PROB30 TEMPO 2318/2322 4000 BR BKN006 BECMG 2322/2401 4000 BR BKN003 PROB30 TEMPO 2322/2407 0300 FG BKN001 BECMG 2409/2412 9999 NSW SCT025 EGLL 230457Z 2306/2412 28010KT 9999 SCT040 BECMG 2307/2310 21008KT BKN010 TEMPO 2307/2315 6000 -RA PROB40 TEMPO 2308/2315 4000 RADZ BKN005 BECMG 2315/2318 BKN035 PROB30 2322/2403 2000 BR MIFG BKN004 BECMG 2403/2406 3000 RADZ BKN012 TEMPO 2403/2409 BKN004 PROB30 TEMPO 2410/2412 BKN018 EGSS 230457Z 2306/2412 23008KT 9999 BKN040 BECMG 2308/2311 BKN008 TEMPO 2308/2315 5000 RADZ PROB40 TEMPO 2309/2315 3000 BR BKN003 BECMG 2314/2316 FEW040 PROB30 2318/2322 2000 BR BECMG 2322/2324 2000 BR BKN004 PROB30 TEMPO 2400/2406 0300 FG OVC000 BECMG 2405/2407 7000 NSW FEW025 BECMG 2407/2410 9999 TEMPO 2407/2412 -RA BKN009 EGMD 230806Z 2309/2318 28012KT 9999 OVC045 BECMG 2309/2310 22010KT BKN010 TEMPO 2309/2315 7000 -RADZ BKN007 BECMG 2310/2312 23020KT PROB40 TEMPO 2310/2315 3000 RADZ BKN004 EGDL   EGMH   EGVP 230758Z 2309/2318 22008KT 9999 BKN007 TEMPO 2309/2312 6000 RA BKN004 PROB30 TEMPO 2309/2311 3000 RADZ BKN002 BECMG 2312/2314 FEW015 EGHQ AMD 230930Z 2309/2318 23015KT 0400 -DZ FG BKN001 PROB40 TEMPO 2309/2313 6000 NSW SCT006 TEMPO 2313/2318 2000 BR BKN006 EGWU 230725Z 2309/2403 19007KT 9999 BKN008 TEMPO 2309/2313 5000 -RADZ BKN005 BECMG 2312/2315 FEW020 PROB40 2322/2403 4000 BR SCT004 EGHK   EGHE 230801Z 2309/2318 24015KT 1800 -DZ BR BKN002 PROB40 2309/2318 0300 FG OVC001 EGKA 230806Z 2309/2318 24013KT 9999 BKN008 TEMPO 2309/2318 4000 -RADZ PROB40 TEMPO 2311/2316 2500 RADZ BKN003 PROB30 TEMPO 1118 24015G28KT EGHI 230801Z 2309/2318 20006KT 6000 -RA BKN008 TEMPO 2309/2312 4000 RADZ BR BKN004 BECMG 2312/2315 27010KT 9999 NSW SCT025 EGMC 230806Z 2309/2318 23010KT 9999 SCT035 BECMG 2309/2311 BKN012 TEMPO 2309/2318 7000 -RADZ BKN008 PROB30 TEMPO 2311/2317 4000 RADZ BKN004 EGDX 230722Z 2309/2318 25015KT 9999 BKN010 TEMPO 2309/2311 4000 -DZ BR BKN005 PROB40 TEMPO 2309/2311 26015G25KT 2000 DZ SCT002 BKN003 BECMG 2311/2313 FEW012 TEMPO 2313/2318 SCT012 EGDY  

RocketRoute WX - rrwx.com weather for pilots